Papillon — J7BT5 — position and weather

sailwx.info

Track history (hours):
 
Tides and Currents Weather Stations Pressure Air Temp Water Temp Dewpoint Dewpoint Depression Visibility Wind Speed Wind Dir Waves Ship Positions

Papillon

Last reported at 2018-Jun-10 16:18 UTC. Time now 2018-Jun-18 00:20 UTC.
Position N 46°28' E 030°46'.

Length 18 m.

Type: Sailing vessel. MMSI: 325475000.

Date/timePositionNaut miles runAvg speedWind from/ knotsBaromVisibWave heightAir tempDewpointWater temp
2018-Jun-10 16:18N 46°28' E 030°46'0 0.0
2018-Jun-10 15:54N 46°28' E 030°46'0 0.0
2018-Jun-10 15:30N 46°28' E 030°46'0 0.9
2018-Jun-10 15:00N 46°28' E 030°46'2 0.3
2018-Jun-10 08:23N 46°25' E 030°47'2 6.3
2018-Jun-10 08:00N 46°28' E 030°46'0 0.3
2018-Jun-10 07:09N 46°28' E 030°46'0 0.0
2018-Jun-10 06:48N 46°28' E 030°46'0 0.0
2018-Jun-10 06:30N 46°28' E 030°46'  
2018-Jun-02 14:13N 46°28' E 030°46'0 0.0
2018-Jun-02 13:55N 46°28' E 030°46'3 0.8
2018-Jun-02 10:36N 46°25' E 030°47'1 7.0
2018-Jun-02 10:29N 46°26' E 030°47'2 3.4
2018-Jun-02 09:56N 46°28' E 030°46'0 0.0
2018-Jun-01 17:06N 46°28' E 030°46'0 0.0
2018-Jun-01 16:54N 46°28' E 030°46'0 0.0
2018-Jun-01 16:30N 46°28' E 030°46'0 0.0
2018-Jun-01 16:00N 46°28' E 030°46'0 0.0
2018-Jun-01 15:27N 46°28' E 030°46'0 0.0
2018-Jun-01 14:54N 46°28' E 030°46'0 0.0
2018-Jun-01 14:30N 46°28' E 030°46'0 0.0
2018-Jun-01 13:33N 46°28' E 030°46'0 0.0
2018-Jun-01 12:36N 46°28' E 030°46'0 0.0
2018-Jun-01 12:30N 46°28' E 030°46'2 4.0
2018-Jun-01 12:00N 46°29' E 030°48'3 5.6
2018-Jun-01 11:30N 46°32' E 030°49'1 1.0
2018-Jun-01 11:00N 46°32' E 030°49'1 1.3
2018-Jun-01 10:29N 46°32' E 030°49'  
Track history (hours):
 
Tides and Currents Weather Stations Pressure Air Temp Water Temp Dewpoint Dewpoint Depression Visibility Wind Speed Wind Dir Waves Ship Positions

Papillon

Last reported at 2018-Jun-10 16:18 UTC. Time now 2018-Jun-18 00:20 UTC.
Position N 46°28' E 030°46'.

Length 18 m.

Type: Sailing vessel. MMSI: 325475000.

Date/timePositionNaut miles runAvg speedWind from/ knotsBaromVisibWave heightAir tempDewpointWater temp
2018-Jun-10 16:18N 46°28' E 030°46'0 0.0
2018-Jun-10 15:54N 46°28' E 030°46'0 0.0
2018-Jun-10 15:30N 46°28' E 030°46'0 0.9
2018-Jun-10 15:00N 46°28' E 030°46'2 0.3
2018-Jun-10 08:23N 46°25' E 030°47'2 6.3
2018-Jun-10 08:00N 46°28' E 030°46'0 0.3
2018-Jun-10 07:09N 46°28' E 030°46'0 0.0
2018-Jun-10 06:48N 46°28' E 030°46'0 0.0
2018-Jun-10 06:30N 46°28' E 030°46'  
2018-Jun-02 14:13N 46°28' E 030°46'0 0.0
2018-Jun-02 13:55N 46°28' E 030°46'3 0.8
2018-Jun-02 10:36N 46°25' E 030°47'1 7.0
2018-Jun-02 10:29N 46°26' E 030°47'2 3.4
2018-Jun-02 09:56N 46°28' E 030°46'0 0.0
2018-Jun-01 17:06N 46°28' E 030°46'0 0.0
2018-Jun-01 16:54N 46°28' E 030°46'0 0.0
2018-Jun-01 16:30N 46°28' E 030°46'0 0.0
2018-Jun-01 16:00N 46°28' E 030°46'0 0.0
2018-Jun-01 15:27N 46°28' E 030°46'0 0.0
2018-Jun-01 14:54N 46°28' E 030°46'0 0.0
2018-Jun-01 14:30N 46°28' E 030°46'0 0.0
2018-Jun-01 13:33N 46°28' E 030°46'0 0.0
2018-Jun-01 12:36N 46°28' E 030°46'0 0.0
2018-Jun-01 12:30N 46°28' E 030°46'2 4.0
2018-Jun-01 12:00N 46°29' E 030°48'3 5.6
2018-Jun-01 11:30N 46°32' E 030°49'1 1.0
2018-Jun-01 11:00N 46°32' E 030°49'1 1.3
2018-Jun-01 10:29N 46°32' E 030°49'  

Dump ship's entire track history